Dzuunmod, Mongolia
Current Conditions -  °F | °C
As of 6:00 PM on Saturday 29 Nov 2014 (Local Time) from ZMUB Reporting Station
Few Clouds Few Clouds  
Wind Chill: -4°   Ceiling: Unl
Heat Index:   Visibility: 6mi
Dew Point: -11°   Wind: 4mph
Humidity: 47%   Direction: 280°W
Pressure: 29.91"   Gusts: NA
Location:  47.71°N, 106.95°E
Report Text: ZMUB 291000Z 28002MPS 9999 FEW033 M15/M24 Q1013 NOSIG RMK QFE653.2 43 NT
Loading
Personal Weather Stations






























Interactive Weather Map New forecast layout! Learn more

10-Day Weather Forecast

Advertisements
Track Severe Weather on mobile